Time;durP1;ratioP1;P1;durP2;ratioP2;P2;SDS_P1;SDS_P2;PMS_P1;PMS_P2;Temp;Humidity;BMP_temperature;BMP_pressure;BME280_temperature;BME280_humidity;BME280_pressure;Samples;Min_cycle;Max_cycle;Signal;HPM_P1;HPM_P2
2021/12/14 00:01:34;;;;;;;2.60;1.60;;;9.60;99.90;;;;;;5021105;28;20085;-56
2021/12/14 00:04:10;;;;;;;2.80;2.10;;;9.60;99.90;;;;;;5024942;28;20390;-57
2021/12/14 00:06:37;;;;;;;2.25;1.60;;;9.60;99.90;;;;;;5023284;28;20133;-56
2021/12/14 00:09:05;;;;;;;4.03;2.00;;;9.60;99.90;;;;;;5024303;28;20130;-56
2021/12/14 00:15:03;;;;;;;3.70;2.40;;;9.50;99.90;;;;;;5023661;28;20161;-56
2021/12/14 00:17:16;;;;;;;3.53;2.63;;;9.60;99.90;;;;;;5027319;28;20084;-56
2021/12/14 00:19:43;;;;;;;3.13;2.30;;;9.50;99.90;;;;;;5025181;28;20073;-56
2021/12/14 00:24:55;;;;;;;2.47;2.00;;;9.50;99.90;;;;;;5021901;28;20125;-57
2021/12/14 00:27:23;;;;;;;3.13;2.08;;;9.50;99.90;;;;;;5025873;28;20138;-56
2021/12/14 00:29:53;;;;;;;2.65;2.17;;;9.50;99.90;;;;;;5026028;28;20088;-58
2021/12/14 00:32:22;;;;;;;3.30;2.22;;;9.60;99.90;;;;;;5027392;28;20140;-58
2021/12/14 00:34:50;;;;;;;4.80;2.90;;;9.60;99.90;;;;;;5027704;28;20088;-58
2021/12/14 00:37:32;;;;;;;2.05;1.85;;;9.60;99.90;;;;;;5026987;28;20136;-56
2021/12/14 00:40:13;;;;;;;3.67;2.70;;;9.50;99.90;;;;;;5026272;28;20096;-58
2021/12/14 00:42:39;;;;;;;2.05;1.85;;;9.50;99.90;;;;;;5024597;28;20155;-57
2021/12/14 00:45:06;;;;;;;3.15;2.20;;;9.50;99.90;;;;;;5023948;28;20088;-57
2021/12/14 00:47:33;;;;;;;2.55;2.00;;;9.40;99.90;;;;;;5023873;28;20080;-57
2021/12/14 00:50:00;;;;;;;2.78;1.80;;;9.40;99.90;;;;;;5023741;28;20045;-56
2021/12/14 00:52:27;;;;;;;3.88;1.80;;;9.40;99.90;;;;;;5023788;28;20176;-56
2021/12/14 00:54:53;;;;;;;3.28;1.90;;;9.40;99.90;;;;;;5024628;28;20133;-55
2021/12/14 00:57:20;;;;;;;3.05;1.92;;;9.30;99.90;;;;;;5021723;28;20079;-57
2021/12/14 00:59:47;;;;;;;2.67;1.90;;;9.40;99.90;;;;;;5022725;28;20133;-57
2021/12/14 01:02:20;;;;;;;2.97;1.90;;;9.30;99.90;;;;;;5023341;28;20137;-57
2021/12/14 01:04:57;;;;;;;2.63;1.95;;;9.30;99.90;;;;;;5022804;28;20113;-57
2021/12/14 01:07:26;;;;;;;2.90;1.92;;;9.30;99.90;;;;;;5024959;28;20473;-56
2021/12/14 01:09:56;;;;;;;3.42;2.30;;;9.30;99.90;;;;;;5024473;28;20478;-57
2021/12/14 01:12:35;;;;;;;2.95;2.40;;;9.30;99.90;;;;;;5025118;28;20643;-58
2021/12/14 01:15:29;;;;;;;4.15;2.53;;;9.30;99.90;;;;;;5025879;28;20091;-57
2021/12/14 01:18:15;;;;;;;4.22;2.53;;;9.30;99.90;;;;;;5015338;28;20123;-57
2021/12/14 01:20:47;;;;;;;2.90;2.28;;;9.20;99.90;;;;;;5026153;28;20081;-58
2021/12/14 01:23:18;;;;;;;3.20;2.70;;;9.30;99.90;;;;;;5026114;28;20136;-55
2021/12/14 01:25:48;;;;;;;4.45;2.75;;;9.30;99.90;;;;;;5019868;28;20090;-56
2021/12/14 01:28:19;;;;;;;3.40;2.42;;;9.20;99.90;;;;;;5025208;28;20129;-54
2021/12/14 01:31:07;;;;;;;4.85;3.10;;;9.30;99.90;;;;;;5026250;28;20128;-53
2021/12/14 01:33:35;;;;;;;3.55;2.42;;;9.20;99.90;;;;;;5026160;28;20052;-56
2021/12/14 01:36:09;;;;;;;4.70;3.05;;;9.30;99.90;;;;;;5025645;28;20128;-57
2021/12/14 01:38:46;;;;;;;2.95;2.40;;;9.20;99.90;;;;;;5026215;28;20085;-54
2021/12/14 01:41:14;;;;;;;2.97;2.33;;;9.30;99.90;;;;;;5024725;28;20124;-56
2021/12/14 01:43:54;;;;;;;2.97;2.55;;;9.20;99.90;;;;;;5026032;28;20129;-57
2021/12/14 01:46:27;;;;;;;3.53;3.10;;;9.20;99.90;;;;;;5025325;28;20132;-55
2021/12/14 01:48:54;;;;;;;6.22;3.15;;;9.20;99.90;;;;;;5024379;28;20054;-53
2021/12/14 01:51:21;;;;;;;4.93;3.00;;;9.20;99.90;;;;;;5025852;28;20076;-56
2021/12/14 01:53:49;;;;;;;2.72;2.38;;;9.20;99.90;;;;;;5025631;28;20044;-56
2021/12/14 01:56:18;;;;;;;3.40;2.25;;;9.20;99.90;;;;;;5024646;28;20055;-55
2021/12/14 01:58:51;;;;;;;2.83;2.22;;;9.20;99.90;;;;;;5017319;28;20144;-56
2021/12/14 02:01:20;;;;;;;4.45;2.90;;;9.10;99.90;;;;;;5022134;28;20136;-57
2021/12/14 02:03:59;;;;;;;3.80;2.97;;;9.20;99.90;;;;;;5022713;28;20045;-57
2021/12/14 02:06:30;;;;;;;2.70;2.13;;;9.10;99.90;;;;;;5022157;28;20128;-58
2021/12/14 02:09:12;;;;;;;3.58;2.88;;;9.10;99.90;;;;;;5022283;28;20096;-55
2021/12/14 02:11:48;;;;;;;3.35;2.40;;;9.20;99.90;;;;;;5020457;28;20127;-57
2021/12/14 02:14:15;;;;;;;3.85;2.22;;;9.20;99.90;;;;;;5022619;28;20199;-57
2021/12/14 02:16:43;;;;;;;3.03;2.08;;;9.30;99.90;;;;;;5021172;28;20091;-55
2021/12/14 02:19:13;;;;;;;2.72;2.17;;;9.30;99.90;;;;;;5021630;28;20137;-58
2021/12/14 02:21:41;;;;;;;2.78;2.25;;;9.40;99.90;;;;;;5021718;28;20136;-57
2021/12/14 02:24:08;;;;;;;3.30;2.38;;;9.40;99.90;;;;;;5022236;28;20870;-57
2021/12/14 02:26:38;;;;;;;2.78;2.15;;;9.40;99.90;;;;;;5020326;28;20181;-57
2021/12/14 02:29:06;;;;;;;2.95;2.08;;;9.40;99.90;;;;;;5021841;28;20076;-56
2021/12/14 02:31:34;;;;;;;3.47;2.13;;;9.50;99.90;;;;;;5020816;28;20141;-57
2021/12/14 02:34:04;;;;;;;2.67;1.83;;;9.50;99.90;;;;;;5023031;28;20057;-56
2021/12/14 02:36:40;;;;;;;3.20;2.72;;;9.50;99.90;;;;;;5023712;28;20140;-57
2021/12/14 02:39:22;;;;;;;2.50;2.10;;;9.60;99.90;;;;;;5023019;28;20486;-56
2021/12/14 02:41:54;;;;;;;3.05;1.95;;;9.60;99.90;;;;;;5021537;28;20144;-57
2021/12/14 02:44:21;;;;;;;3.38;2.40;;;9.70;99.90;;;;;;5024544;28;20136;-56
2021/12/14 02:47:09;;;;;;;2.50;2.10;;;9.80;99.90;;;;;;5023381;28;20049;-56
2021/12/14 02:49:36;;;;;;;2.47;1.95;;;9.80;99.90;;;;;;5019685;28;20045;-58
2021/12/14 02:52:09;;;;;;;2.78;2.50;;;9.90;99.90;;;;;;5009083;28;20132;-56
2021/12/14 02:54:42;;;;;;;2.92;2.20;;;9.90;99.90;;;;;;5023918;28;20589;-57
2021/12/14 02:57:10;;;;;;;;;;;10.00;99.90;;;;;;5022550;28;20176;-55
2021/12/14 02:59:37;;;;;;;2.85;2.05;;;10.00;99.90;;;;;;5023598;28;19952;-55
2021/12/14 03:02:10;;;;;;;2.55;2.30;;;10.00;99.90;;;;;;5020250;28;20104;-57
2021/12/14 03:04:39;;;;;;;3.60;2.47;;;10.00;99.90;;;;;;5023721;28;20080;-53
2021/12/14 03:07:06;;;;;;;3.40;2.80;;;10.00;99.90;;;;;;5010550;28;20076;-57
2021/12/14 03:09:40;;;;;;;2.83;2.30;;;10.10;99.90;;;;;;5022423;28;20207;-57
2021/12/14 03:12:16;;;;;;;3.38;3.00;;;10.10;99.90;;;;;;5018815;28;20073;-55
2021/12/14 03:15:13;;;;;;;3.72;3.33;;;10.10;99.90;;;;;;5022744;28;20148;-59
2021/12/14 03:17:42;;;;;;;3.70;3.22;;;10.10;99.90;;;;;;5021636;28;20164;-57
2021/12/14 03:20:16;;;;;;;3.80;3.08;;;10.10;99.90;;;;;;5023136;28;20110;-55
2021/12/14 03:23:07;;;;;;;3.67;3.20;;;10.10;99.90;;;;;;5022522;28;20103;-58
2021/12/14 03:25:36;;;;;;;3.50;2.88;;;10.10;99.90;;;;;;4994670;28;20239;-55
2021/12/14 03:28:03;;;;;;;2.97;2.67;;;10.10;99.90;;;;;;5021614;28;20153;-55
2021/12/14 03:30:49;;;;;;;3.63;2.67;;;10.10;99.90;;;;;;5022833;28;20314;-56
2021/12/14 03:33:28;;;;;;;3.63;3.00;;;10.10;99.90;;;;;;5023393;28;20175;-57
2021/12/14 03:35:56;;;;;;;3.22;2.42;;;10.10;99.90;;;;;;5021759;28;20133;-57
2021/12/14 03:38:46;;;;;;;2.92;2.55;;;10.10;99.90;;;;;;5022806;28;20144;-57
2021/12/14 03:41:18;;;;;;;3.80;3.03;;;10.10;99.90;;;;;;5012889;28;20064;-57
2021/12/14 03:43:58;;;;;;;5.20;3.70;;;10.10;99.90;;;;;;5024556;28;20072;-57
2021/12/14 03:46:29;;;;;;;4.45;3.33;;;10.10;99.90;;;;;;5024451;28;20046;-57
2021/12/14 03:48:56;;;;;;;4.95;3.90;;;10.20;99.90;;;;;;5025396;28;20077;-56
2021/12/14 03:51:23;;;;;;;4.05;3.35;;;10.20;99.90;;;;;;5026949;28;20111;-58
2021/12/14 03:53:51;;;;;;;5.28;3.80;;;10.20;99.90;;;;;;5027315;28;20183;-55
2021/12/14 03:56:18;;;;;;;4.57;3.10;;;10.30;99.90;;;;;;5027090;28;20437;-56
2021/12/14 03:58:45;;;;;;;4.38;3.47;;;10.30;99.90;;;;;;5028425;28;20115;-57
2021/12/14 04:01:15;;;;;;;3.58;3.28;;;10.30;99.90;;;;;;5027888;28;20041;-56
2021/12/14 04:03:43;;;;;;;4.78;3.45;;;10.30;99.90;;;;;;5028888;28;20049;-59
2021/12/14 04:06:09;;;;;;;4.20;3.28;;;10.40;99.90;;;;;;5027972;28;20088;-56
2021/12/14 04:08:36;;;;;;;4.93;2.92;;;10.40;99.90;;;;;;5028238;28;20168;-57
2021/12/14 04:11:06;;;;;;;3.55;2.78;;;10.40;99.90;;;;;;5027463;28;20049;-58
2021/12/14 04:13:35;;;;;;;3.15;2.70;;;10.40;99.90;;;;;;5026237;28;20073;-58
2021/12/14 04:16:03;;;;;;;3.70;2.65;;;10.40;99.90;;;;;;5028448;28;20145;-56
2021/12/14 04:18:30;;;;;;;3.90;2.67;;;10.40;99.90;;;;;;5026579;28;20155;-56
2021/12/14 04:20:56;;;;;;;3.35;2.60;;;10.40;99.90;;;;;;5027457;28;20049;-57
2021/12/14 04:23:26;;;;;;;3.40;2.72;;;10.30;99.90;;;;;;5027691;28;20445;-57
2021/12/14 04:25:54;;;;;;;3.30;2.60;;;10.40;99.90;;;;;;5027096;28;20619;-57
2021/12/14 04:28:23;;;;;;;6.32;2.95;;;10.30;99.90;;;;;;5026371;28;20224;-58
2021/12/14 04:30:50;;;;;;;3.38;2.35;;;10.30;99.90;;;;;;5027937;28;20455;-56
2021/12/14 04:33:22;;;;;;;4.28;2.35;;;10.30;99.90;;;;;;5028126;28;20088;-57
2021/12/14 04:35:48;;;;;;;3.40;2.22;;;10.30;99.90;;;;;;5026065;28;20069;-56
2021/12/14 04:38:23;;;;;;;2.72;2.50;;;10.30;99.90;;;;;;5009666;28;20084;-55
2021/12/14 04:52:12;;;;;;;2.40;1.98;;;10.50;99.90;;;;;;5026679;28;20132;-58
2021/12/14 04:54:42;;;;;;;4.32;2.40;;;10.50;99.90;;;;;;5025768;28;20132;-56
2021/12/14 04:57:47;;;;;;;3.53;2.50;;;10.50;99.90;;;;;;5024249;28;20053;-58
2021/12/14 05:00:44;;;;;;;2.58;1.90;;;10.50;99.90;;;;;;5026824;28;20225;-57
2021/12/14 05:03:29;;;;;;;2.58;2.20;;;10.60;99.90;;;;;;5026228;28;20513;-58
2021/12/14 05:06:09;;;;;;;2.95;2.13;;;10.60;99.90;;;;;;5026686;28;20128;-56
2021/12/14 05:11:15;;;;;;;2.67;2.22;;;10.60;99.90;;;;;;5025899;28;20077;-58
2021/12/14 05:13:43;;;;;;;2.58;1.85;;;10.60;99.90;;;;;;5026242;28;20507;-56
2021/12/14 05:16:19;;;;;;;3.17;2.30;;;10.60;99.90;;;;;;5027190;28;20157;-57
2021/12/14 05:18:51;;;;;;;3.95;2.10;;;10.60;99.90;;;;;;5027670;28;20041;-57
2021/12/14 05:21:37;;;;;;;3.90;2.38;;;10.60;99.90;;;;;;5025546;28;20144;-56
2021/12/14 05:24:06;;;;;;;2.60;1.85;;;10.60;99.90;;;;;;5026595;28;20145;-55
2021/12/14 05:26:33;;;;;;;2.67;2.08;;;10.60;99.90;;;;;;5025308;28;20167;-57
2021/12/14 05:29:02;;;;;;;2.83;2.38;;;10.60;99.90;;;;;;5027109;28;20702;-55
2021/12/14 05:31:29;;;;;;;3.53;2.55;;;10.60;99.90;;;;;;5024827;28;20152;-57
2021/12/14 05:33:56;;;;;;;2.80;2.30;;;10.60;99.90;;;;;;5026514;28;20042;-57
2021/12/14 05:36:22;;;;;;;3.55;2.70;;;10.60;99.90;;;;;;5026689;28;20160;-56
2021/12/14 05:38:57;;;;;;;2.33;1.98;;;10.60;99.90;;;;;;5025294;28;20140;-56
2021/12/14 05:44:17;;;;;;;5.68;2.17;;;10.60;99.90;;;;;;5022329;28;20610;-56
2021/12/14 05:46:50;;;;;;;2.38;1.98;;;10.60;99.90;;;;;;5025666;28;20132;-58
2021/12/14 05:49:25;;;;;;;3.22;2.30;;;10.60;99.90;;;;;;5022657;28;20060;-58
2021/12/14 05:51:53;;;;;;;2.83;1.88;;;10.60;99.90;;;;;;5022469;28;20049;-56
2021/12/14 05:54:25;;;;;;;2.88;2.17;;;10.60;99.90;;;;;;5024474;28;20136;-58
2021/12/14 05:56:52;;;;;;;2.35;1.95;;;10.50;99.90;;;;;;5021976;28;20140;-56
2021/12/14 05:59:24;;;;;;;3.53;2.25;;;10.50;99.90;;;;;;5024259;28;20140;-59
2021/12/14 06:01:51;;;;;;;2.38;1.90;;;10.50;99.90;;;;;;5017907;28;20524;-58
2021/12/14 06:04:18;;;;;;;3.28;2.22;;;10.40;99.90;;;;;;5021635;28;20053;-58
2021/12/14 06:06:51;;;;;;;3.80;2.28;;;10.40;99.90;;;;;;5020201;28;20137;-56
2021/12/14 06:09:28;;;;;;;2.85;2.30;;;10.30;99.90;;;;;;5020053;28;20084;-55
2021/12/14 06:12:03;;;;;;;3.72;2.70;;;10.20;99.90;;;;;;5020117;28;20128;-55
2021/12/14 06:14:30;;;;;;;5.30;3.00;;;10.20;99.90;;;;;;5024505;28;20160;-58
2021/12/14 06:17:02;;;;;;;3.63;3.00;;;10.10;99.90;;;;;;5023000;28;20077;-56
2021/12/14 06:19:40;;;;;;;4.82;2.63;;;10.00;99.90;;;;;;5021760;28;20076;-57
2021/12/14 06:22:15;;;;;;;4.72;3.03;;;9.90;99.90;;;;;;5023107;28;20488;-57
2021/12/14 06:24:44;;;;;;;4.30;2.90;;;9.90;99.90;;;;;;5022112;28;20085;-57
2021/12/14 06:27:14;;;;;;;4.38;3.25;;;9.80;99.90;;;;;;5020345;28;20489;-58
2021/12/14 06:29:49;;;;;;;3.88;2.88;;;9.80;99.90;;;;;;5024121;28;20091;-57
2021/12/14 06:32:21;;;;;;;4.50;3.03;;;9.70;99.90;;;;;;5021100;28;20130;-57
2021/12/14 06:34:55;;;;;;;4.50;3.25;;;9.60;99.90;;;;;;5022035;28;20069;-56
2021/12/14 06:37:41;;;;;;;3.65;3.00;;;9.60;99.90;;;;;;5021634;28;20462;-57
2021/12/14 06:40:22;;;;;;;3.72;3.10;;;9.60;99.90;;;;;;5020710;28;20045;-58
2021/12/14 06:42:51;;;;;;;3.53;3.17;;;9.60;99.90;;;;;;5017923;28;20504;-57
2021/12/14 06:45:43;;;;;;;3.15;2.85;;;9.50;99.90;;;;;;5025509;28;20512;-56
2021/12/14 06:48:20;;;;;;;4.38;3.38;;;9.50;99.90;;;;;;5020163;28;20053;-58
2021/12/14 06:50:57;;;;;;;4.75;2.90;;;9.50;99.90;;;;;;5014369;28;20084;-56
2021/12/14 06:53:24;;;;;;;4.15;3.53;;;9.50;99.90;;;;;;5018389;28;20132;-58
2021/12/14 06:55:52;;;;;;;5.32;3.60;;;9.50;99.90;;;;;;5017864;28;20057;-55
2021/12/14 06:58:24;;;;;;;4.18;3.20;;;9.50;99.90;;;;;;5017541;28;20147;-58
2021/12/14 07:01:16;;;;;;;3.05;2.75;;;9.50;99.90;;;;;;5011206;28;20080;-56
2021/12/14 07:03:46;;;;;;;3.95;3.33;;;9.50;99.90;;;;;;5018195;28;20049;-58
2021/12/14 07:06:43;;;;;;;4.57;3.65;;;9.50;99.90;;;;;;5016025;28;20636;-53
2021/12/14 07:09:16;;;;;;;5.78;3.60;;;9.50;99.90;;;;;;5011520;28;20148;-60
2021/12/14 07:12:07;;;;;;;4.18;2.97;;;9.50;99.90;;;;;;5016042;28;20153;-57
2021/12/14 07:14:42;;;;;;;5.65;3.85;;;9.50;99.90;;;;;;5023097;28;20141;-58
2021/12/14 07:17:10;;;;;;;7.72;4.50;;;9.50;99.90;;;;;;5011503;28;20671;-58
2021/12/14 07:19:48;;;;;;;4.95;3.60;;;9.50;99.90;;;;;;5018630;28;20228;-57
2021/12/14 07:22:31;;;;;;;6.55;4.05;;;9.60;99.90;;;;;;5016540;28;20085;-57
2021/12/14 07:25:07;;;;;;;4.28;3.72;;;9.60;99.90;;;;;;5017353;28;20148;-55
2021/12/14 07:27:38;;;;;;;5.72;3.90;;;9.60;99.90;;;;;;5021503;28;20137;-57
2021/12/14 07:30:15;;;;;;;6.00;4.53;;;9.60;99.90;;;;;;5022453;28;20077;-56
2021/12/14 07:32:41;;;;;;;5.75;3.80;;;9.60;99.90;;;;;;5021991;28;20175;-57
2021/12/14 07:35:28;;;;;;;4.90;3.80;;;9.60;99.90;;;;;;5023072;28;20405;-57
2021/12/14 07:38:04;;;;;;;6.32;3.88;;;9.60;99.90;;;;;;5023133;28;20570;-58
2021/12/14 07:40:38;;;;;;;5.10;4.38;;;9.60;99.90;;;;;;5005230;28;20755;-57
2021/12/14 07:43:21;;;;;;;7.22;5.00;;;9.60;99.90;;;;;;5020676;28;20081;-59
2021/12/14 07:45:50;;;;;;;5.55;4.53;;;9.60;99.90;;;;;;5020697;28;20778;-57
2021/12/14 07:48:19;;;;;;;8.05;5.28;;;9.60;99.90;;;;;;5022744;28;20120;-58
2021/12/14 07:50:49;;;;;;;6.18;4.93;;;9.70;99.90;;;;;;5022543;28;20063;-57
2021/12/14 07:53:32;;;;;;;5.63;4.40;;;9.70;99.90;;;;;;5021609;28;20130;-58
2021/12/14 07:55:58;;;;;;;7.50;5.17;;;9.70;99.90;;;;;;5020754;28;20068;-58
2021/12/14 07:58:37;;;;;;;5.30;4.25;;;9.70;99.90;;;;;;5021277;28;20393;-58
2021/12/14 08:01:04;;;;;;;6.18;4.20;;;9.60;99.90;;;;;;5022422;28;20584;-57
2021/12/14 08:03:33;;;;;;;4.75;4.25;;;9.70;99.90;;;;;;5021829;28;20060;-57
2021/12/14 08:06:03;;;;;;;6.18;5.28;;;9.60;99.90;;;;;;5021620;28;20137;-59
2021/12/14 08:14:23;;;;;;;4.82;4.32;;;9.70;99.90;;;;;;5022108;28;20077;-57
2021/12/14 08:16:58;;;;;;;5.50;4.55;;;9.70;99.90;;;;;;5021471;28;20605;-59
2021/12/14 08:19:37;;;;;;;5.32;4.00;;;9.70;99.90;;;;;;5020955;28;20143;-56
2021/12/14 08:22:26;;;;;;;5.95;3.80;;;9.70;99.90;;;;;;5014861;28;20310;-59
2021/12/14 08:24:53;;;;;;;5.05;4.10;;;9.80;99.90;;;;;;5020230;28;20099;-56
2021/12/14 08:27:21;;;;;;;4.97;4.45;;;9.80;99.90;;;;;;5017531;28;20124;-57
2021/12/14 08:29:50;;;;;;;5.28;4.72;;;9.90;99.90;;;;;;5020020;28;20148;-57
2021/12/14 08:32:20;;;;;;;6.88;5.47;;;9.90;99.90;;;;;;5014757;28;20140;-58
2021/12/14 08:34:48;;;;;;;4.97;4.18;;;10.00;99.90;;;;;;5019804;28;20072;-58
2021/12/14 08:37:33;;;;;;;5.35;4.13;;;10.00;99.90;;;;;;5015582;28;20049;-57
2021/12/14 08:40:07;;;;;;;7.20;4.53;;;10.10;99.90;;;;;;5018961;28;20099;-54
2021/12/14 08:42:47;;;;;;;5.43;4.80;;;10.20;99.90;;;;;;5018732;28;20137;-56
2021/12/14 08:45:25;;;;;;;6.03;4.65;;;10.30;99.90;;;;;;5021503;28;20057;-57
2021/12/14 08:48:10;;;;;;;5.07;4.57;;;10.40;99.90;;;;;;5019947;28;20064;-57
2021/12/14 08:50:46;;;;;;;5.18;4.68;;;10.50;99.90;;;;;;5019674;28;20050;-58
2021/12/14 08:53:13;;;;;;;7.82;5.28;;;10.50;99.90;;;;;;5020128;28;20829;-58
2021/12/14 08:55:43;;;;;;;6.00;5.40;;;10.60;99.90;;;;;;5021029;28;20136;-58
2021/12/14 08:58:10;;;;;;;5.75;5.25;;;10.70;99.90;;;;;;5019583;28;20053;-59
2021/12/14 09:00:40;;;;;;;8.50;5.32;;;10.70;99.90;;;;;;5020254;28;20045;-57
2021/12/14 09:03:09;;;;;;;5.95;4.40;;;10.80;99.90;;;;;;5020008;28;20055;-58
2021/12/14 09:05:47;;;;;;;5.25;4.20;;;10.90;99.90;;;;;;5020206;28;20834;-58
2021/12/14 09:08:15;;;;;;;7.32;5.07;;;11.00;99.90;;;;;;5019925;28;20079;-56
2021/12/14 09:10:43;;;;;;;5.00;4.32;;;11.00;99.90;;;;;;5019900;28;20421;-56
2021/12/14 09:13:11;;;;;;;7.28;4.65;;;11.00;99.90;;;;;;5020005;28;20056;-57
2021/12/14 09:15:42;;;;;;;5.10;4.53;;;11.10;99.90;;;;;;5020971;28;20163;-57
2021/12/14 09:18:09;;;;;;;9.13;5.70;;;11.20;99.90;;;;;;5020233;28;20140;-57
2021/12/14 09:20:43;;;;;;;5.55;4.55;;;11.20;99.90;;;;;;5020304;28;20065;-56
2021/12/14 09:23:17;;;;;;;5.88;5.38;;;11.30;99.90;;;;;;5019093;28;20050;-58
2021/12/14 09:25:44;;;;;;;7.80;4.78;;;11.30;99.90;;;;;;5019142;28;20049;-58
2021/12/14 09:28:11;;;;;;;6.45;4.18;;;11.30;99.90;;;;;;5018499;28;20076;-58
2021/12/14 09:30:56;;;;;;;6.72;4.95;;;11.40;99.90;;;;;;5020225;28;20088;-58
2021/12/14 09:33:24;;;;;;;5.90;4.50;;;11.40;99.90;;;;;;5019919;28;20066;-57
2021/12/14 09:35:53;;;;;;;6.75;5.60;;;11.40;99.90;;;;;;5020549;28;20382;-57
2021/12/14 09:38:20;;;;;;;5.78;4.18;;;11.50;99.90;;;;;;5019906;28;20060;-58
2021/12/14 09:40:51;;;;;;;6.57;4.57;;;11.50;99.90;;;;;;5019034;28;20087;-58
2021/12/14 09:43:19;;;;;;;4.63;3.80;;;11.60;99.90;;;;;;5018699;28;20130;-58
2021/12/14 09:45:52;;;;;;;7.25;4.07;;;11.60;99.90;;;;;;5019858;28;20209;-57
2021/12/14 09:48:27;;;;;;;6.47;4.68;;;11.70;99.90;;;;;;5018407;28;20115;-58
2021/12/14 09:50:56;;;;;;;5.85;3.55;;;11.70;99.90;;;;;;5017437;28;20045;-57
2021/12/14 09:53:24;;;;;;;4.78;4.00;;;11.80;99.90;;;;;;5015287;28;20676;-57
2021/12/14 09:55:51;;;;;;;6.18;3.70;;;11.80;99.90;;;;;;5018410;28;20669;-57
2021/12/14 09:58:31;;;;;;;3.47;3.10;;;11.90;99.90;;;;;;5017101;28;20132;-58
2021/12/14 10:01:11;;;;;;;5.72;3.45;;;11.90;99.90;;;;;;5019237;28;20649;-58
2021/12/14 10:03:46;;;;;;;5.15;3.35;;;12.00;99.90;;;;;;5019837;28;20061;-58
2021/12/14 10:06:16;;;;;;;3.45;2.88;;;12.10;99.90;;;;;;5017060;28;20052;-55
2021/12/14 10:08:47;;;;;;;4.82;2.95;;;12.10;99.90;;;;;;5019385;28;20574;-58
2021/12/14 10:12:17;;;;;;;4.30;2.80;;;12.20;99.90;;;;;;5017405;28;20077;-56
2021/12/14 10:14:32;;;;;;;4.55;2.97;;;12.20;99.90;;;;;;5018954;28;20053;-57
2021/12/14 10:16:59;;;;;;;5.10;3.85;;;12.30;99.90;;;;;;5018835;28;20501;-58
2021/12/14 10:19:28;;;;;;;4.35;3.00;;;12.30;99.90;;;;;;5018588;28;20084;-58
2021/12/14 10:22:02;;;;;;;5.78;2.95;;;12.40;99.90;;;;;;5018155;28;20128;-58
2021/12/14 10:24:29;;;;;;;4.97;2.95;;;12.40;99.90;;;;;;5018241;28;20081;-58
2021/12/14 10:27:00;;;;;;;4.97;3.40;;;12.50;99.90;;;;;;5017000;28;20060;-57
2021/12/14 10:29:29;;;;;;;7.35;3.03;;;12.50;99.90;;;;;;5018358;28;20077;-57
2021/12/14 10:32:01;;;;;;;3.75;2.55;;;12.50;99.90;;;;;;5016655;28;20045;-56
2021/12/14 10:34:29;;;;;;;2.40;2.03;;;12.60;99.90;;;;;;5018951;28;20049;-56
2021/12/14 10:37:09;;;;;;;5.78;2.75;;;12.70;99.90;;;;;;5018552;28;20128;-58
2021/12/14 10:39:41;;;;;;;5.40;2.92;;;12.70;99.90;;;;;;5018482;28;20088;-58
2021/12/14 10:44:57;;;;;;;4.32;2.65;;;12.80;99.90;;;;;;5018096;28;20138;-56
2021/12/14 10:47:25;;;;;;;5.03;2.92;;;12.80;99.90;;;;;;5018257;28;20505;-58
2021/12/14 10:49:52;;;;;;;4.63;2.80;;;12.90;99.90;;;;;;5015181;28;20060;-58
2021/12/14 10:52:23;;;;;;;4.13;2.65;;;12.90;99.90;;;;;;5018249;28;20147;-58
2021/12/14 10:54:53;;;;;;;3.50;2.47;;;12.90;99.90;;;;;;5018837;28;20105;-59
2021/12/14 10:57:23;;;;;;;6.30;3.00;;;12.90;99.90;;;;;;5017356;28;20137;-58
2021/12/14 10:59:51;;;;;;;3.30;2.50;;;13.00;99.90;;;;;;5018856;28;20049;-57
2021/12/14 11:02:21;;;;;;;6.38;3.28;;;13.00;99.90;;;;;;5019417;28;20153;-58
2021/12/14 11:04:53;;;;;;;4.18;2.70;;;13.00;99.90;;;;;;5018673;28;20060;-57
2021/12/14 11:07:37;;;;;;;4.28;2.63;;;13.10;99.90;;;;;;5016502;28;20461;-58
2021/12/14 11:10:10;;;;;;;4.97;3.13;;;13.10;99.90;;;;;;5015185;28;20053;-59
2021/12/14 11:12:38;;;;;;;3.28;2.35;;;13.10;99.90;;;;;;5005051;28;20077;-58
2021/12/14 11:15:07;;;;;;;3.63;2.78;;;13.10;99.90;;;;;;5017385;28;20140;-57
2021/12/14 11:20:24;;;;;;;5.05;2.75;;;13.20;99.90;;;;;;5017039;28;20144;-58
2021/12/14 11:23:00;;;;;;;4.43;2.80;;;13.20;99.90;;;;;;5018765;28;20516;-58
2021/12/14 11:25:45;;;;;;;5.50;2.83;;;13.30;99.90;;;;;;5018932;28;20057;-59
2021/12/14 11:28:26;;;;;;;3.25;2.40;;;13.30;99.90;;;;;;5017814;28;20394;-58
2021/12/14 11:31:05;;;;;;;4.60;2.85;;;13.30;99.90;;;;;;5018167;28;20154;-58
2021/12/14 11:33:35;;;;;;;4.97;2.80;;;13.40;99.90;;;;;;5018687;28;20058;-58
2021/12/14 11:36:37;;;;;;;4.32;2.45;;;13.40;99.90;;;;;;5018194;28;20160;-58
2021/12/14 11:39:25;;;;;;;4.25;2.50;;;13.50;99.90;;;;;;5018195;28;20136;-57
2021/12/14 11:41:54;;;;;;;4.78;2.90;;;13.50;99.90;;;;;;5016288;28;20540;-56
2021/12/14 11:44:28;;;;;;;4.88;2.75;;;13.60;99.90;;;;;;5018417;28;20140;-57
2021/12/14 11:47:22;;;;;;;3.42;2.65;;;13.70;99.90;;;;;;5018750;28;20057;-58
2021/12/14 11:50:11;;;;;;;6.38;3.20;;;13.70;99.90;;;;;;5019123;28;20057;-58
2021/12/14 11:52:40;;;;;;;4.30;3.10;;;13.70;99.90;;;;;;5018269;28;20097;-59
2021/12/14 11:55:21;;;;;;;5.65;2.80;;;13.70;99.90;;;;;;5018403;28;20077;-58
2021/12/14 11:57:48;;;;;;;4.85;2.67;;;13.70;99.90;;;;;;5017139;28;20109;-59
2021/12/14 12:00:19;;;;;;;5.00;2.60;;;13.80;99.90;;;;;;5017936;28;20049;-58
2021/12/14 12:02:46;;;;;;;4.93;2.70;;;13.90;99.90;;;;;;5017777;28;20049;-56
2021/12/14 12:05:18;;;;;;;6.32;3.00;;;14.00;99.90;;;;;;5018397;28;20059;-58
2021/12/14 12:10:40;;;;;;;5.10;2.85;;;14.20;99.90;;;;;;5018148;28;20141;-58
2021/12/14 12:13:07;;;;;;;6.97;2.92;;;14.20;99.90;;;;;;5018711;28;20199;-55
2021/12/14 12:15:38;;;;;;;5.07;2.80;;;14.10;99.90;;;;;;5016980;28;20409;-58
2021/12/14 12:18:04;;;;;;;4.38;2.72;;;14.10;99.90;;;;;;5021571;28;20517;-59
2021/12/14 12:20:35;;;;;;;4.00;2.28;;;14.10;99.90;;;;;;5020266;28;20061;-59
2021/12/14 12:23:13;;;;;;;6.80;2.88;;;14.00;99.90;;;;;;5005300;28;20086;-59
2021/12/14 12:25:46;;;;;;;4.35;2.92;;;13.90;99.90;;;;;;5020137;28;20149;-58
2021/12/14 12:28:38;;;;;;;4.38;2.70;;;13.90;99.90;;;;;;5019568;28;20073;-57
2021/12/14 12:31:16;;;;;;;5.30;3.03;;;13.70;99.90;;;;;;5021647;28;20615;-57
2021/12/14 12:33:48;;;;;;;5.63;2.67;;;13.70;99.90;;;;;;5020674;28;20053;-58
2021/12/14 12:36:19;;;;;;;6.03;3.17;;;13.80;99.90;;;;;;5019919;28;20045;-57
2021/12/14 12:38:55;;;;;;;4.22;2.67;;;13.80;99.90;;;;;;5019340;28;20515;-59
2021/12/14 12:41:48;;;;;;;6.30;2.85;;;13.80;99.90;;;;;;5018313;28;20133;-54
2021/12/14 12:44:17;;;;;;;5.95;2.80;;;13.90;99.90;;;;;;5015456;28;20056;-58
2021/12/14 12:46:55;;;;;;;4.65;2.72;;;13.90;99.90;;;;;;5020175;28;20042;-56
2021/12/14 12:49:38;;;;;;;5.90;3.17;;;13.90;99.90;;;;;;5019245;28;20076;-57
2021/12/14 12:52:21;;;;;;;4.15;2.63;;;14.00;99.90;;;;;;5019266;28;20092;-58
2021/12/14 12:54:50;;;;;;;7.05;3.30;;;14.00;99.90;;;;;;5019361;28;20156;-57
2021/12/14 12:57:27;;;;;;;6.32;2.80;;;14.00;99.90;;;;;;5018998;28;20131;-58
2021/12/14 13:00:21;;;;;;;5.97;2.92;;;13.90;99.90;;;;;;5020661;28;20077;-56
2021/12/14 13:03:00;;;;;;;4.65;2.50;;;13.80;99.90;;;;;;5017165;28;20061;-58
2021/12/14 13:05:36;;;;;;;5.90;2.92;;;13.80;99.90;;;;;;5015525;28;20067;-56
2021/12/14 13:08:22;;;;;;;6.95;3.50;;;13.80;99.90;;;;;;5019539;28;20068;-56
2021/12/14 13:10:49;;;;;;;6.78;3.40;;;13.90;99.90;;;;;;5020177;28;20100;-57
2021/12/14 13:13:35;;;;;;;4.95;3.30;;;14.00;99.90;;;;;;5018214;28;20539;-58
2021/12/14 13:16:02;;;;;;;4.75;3.17;;;13.90;99.90;;;;;;4999365;28;20520;-58
2021/12/14 13:18:41;;;;;;;4.00;2.50;;;14.00;99.90;;;;;;5008090;28;20060;-58
2021/12/14 13:21:13;;;;;;;4.70;2.63;;;14.10;99.90;;;;;;5017715;28;20188;-58
2021/12/14 13:23:59;;;;;;;5.15;3.05;;;14.00;99.90;;;;;;5019312;28;20128;-58
2021/12/14 13:26:43;;;;;;;7.47;3.20;;;14.00;99.90;;;;;;5017404;28;20164;-57
2021/12/14 13:29:12;;;;;;;5.75;2.78;;;13.90;99.90;;;;;;5018067;28;20140;-59
2021/12/14 13:31:51;;;;;;;5.07;2.33;;;13.90;99.90;;;;;;5018391;28;20064;-58
2021/12/14 13:34:44;;;;;;;5.15;3.10;;;14.00;99.90;;;;;;5019467;28;20184;-56
2021/12/14 13:37:12;;;;;;;5.63;2.75;;;14.00;99.90;;;;;;5019044;28;20057;-58
2021/12/14 13:39:39;;;;;;;3.22;2.03;;;14.00;99.90;;;;;;5019727;28;20124;-58
2021/12/14 13:42:12;;;;;;;5.97;2.67;;;14.00;99.90;;;;;;5016484;28;20053;-58
2021/12/14 13:44:46;;;;;;;4.43;1.95;;;14.00;99.90;;;;;;5019444;28;20160;-58
2021/12/14 13:47:13;;;;;;;3.17;2.08;;;14.00;99.90;;;;;;5017874;28;20081;-58
2021/12/14 13:49:41;;;;;;;3.72;2.15;;;13.90;99.90;;;;;;5020022;28;20065;-59
2021/12/14 13:52:10;;;;;;;4.53;2.20;;;13.90;99.90;;;;;;5019112;28;20085;-58
2021/12/14 13:55:14;;;;;;;4.63;2.17;;;13.90;99.90;;;;;;5019394;28;20452;-58
2021/12/14 13:58:08;;;;;;;5.43;2.63;;;13.80;99.90;;;;;;5018012;28;20104;-58
2021/12/14 14:00:42;;;;;;;4.72;2.85;;;13.80;99.90;;;;;;5015559;28;20432;-58